Time;durP1;ratioP1;P1;durP2;ratioP2;P2;SDS_P1;SDS_P2;PMS_P1;PMS_P2;Temp;Humidity;BMP_temperature;BMP_pressure;BME280_temperature;BME280_humidity;BME280_pressure;Samples;Min_cycle;Max_cycle;Signal;HPM_P1;HPM_P2
2022/04/13 00:01:54;;;;;;;;;;;;;;;;;;5140395;27;19915;-71
2022/04/13 00:04:20;;;;;;;;;;;;;;;;;;5158187;27;19919;-71
2022/04/13 00:06:46;;;;;;;;;;;;;;;;;;5159042;27;19907;-71
2022/04/13 00:09:12;;;;;;;;;;;;;;;;;;5158904;27;20387;-72
2022/04/13 00:11:38;;;;;;;;;;;;;;;;;;5158410;27;19907;-70
2022/04/13 00:14:04;;;;;;;;;;;;;;;;;;5140176;27;19914;-71
2022/04/13 00:16:30;;;;;;;;;;;;;;;;;;5158286;27;19907;-71
2022/04/13 00:18:56;;;;;;;;;;;;;;;;;;5158831;27;19907;-70
2022/04/13 00:21:22;;;;;;;;;;;;;;;;;;5139993;27;19907;-71
2022/04/13 00:23:48;;;;;;;;;;;;;;;;;;5158076;27;19919;-71
2022/04/13 00:26:14;;;;;;;;;;;;;;;;;;5139941;27;20402;-71
2022/04/13 00:28:41;;;;;;;;;;;;;;;;;;5158384;27;19907;-71
2022/04/13 00:31:07;;;;;;;;;;;;;;;;;;5158100;27;19911;-71
2022/04/13 00:33:33;;;;;;;;;;;;;;;;;;5158412;27;20366;-71
2022/04/13 00:35:59;;;;;;;;;;;;;;;;;;5158252;27;19914;-72
2022/04/13 00:38:25;;;;;;;;;;;;;;;;;;5139347;27;19907;-72
2022/04/13 00:40:51;;;;;;;;;;;;;;;;;;5158268;27;19913;-72
2022/04/13 00:43:17;;;;;;;;;;;;;;;;;;5158030;27;19915;-71
2022/04/13 00:45:43;;;;;;;;;;;;;;;;;;5157738;27;19915;-71
2022/04/13 00:48:09;;;;;;;;;;;;;;;;;;5158239;27;19907;-71
2022/04/13 00:50:35;;;;;;;;;;;;;;;;;;5158012;27;19908;-72
2022/04/13 00:53:01;;;;;;;;;;;;;;;;;;5157551;27;19913;-71
2022/04/13 00:55:27;;;;;;;;;;;;;;;;;;5157872;27;20320;-71
2022/04/13 00:57:54;;;;;;;;;;;;;;;;;;5158207;27;19908;-71
2022/04/13 01:00:20;;;;;;;;;;;;;;;;;;5157352;27;19907;-71
2022/04/13 01:02:46;;;;;;;;;;;;;;;;;;5157889;27;19919;-71
2022/04/13 01:05:12;;;;;;;;;;;;;;;;;;5157795;27;19907;-71
2022/04/13 01:07:38;;;;;;;;;;;;;;;;;;5138560;27;20390;-71
2022/04/13 01:10:05;;;;;;;;;;;;;;;;;;5157667;27;19908;-72
2022/04/13 01:12:31;;;;;;;;;;;;;;;;;;5157514;27;20259;-71
2022/04/13 01:14:57;;;;;;;;;;;;;;;;;;5157305;27;19918;-71
2022/04/13 01:17:24;;;;;;;;;;;;;;;;;;5157571;27;19907;-72
2022/04/13 01:19:50;;;;;;;;;;;;;;;;;;5157267;27;19954;-71
2022/04/13 01:22:16;;;;;;;;;;;;;;;;;;5138835;27;19908;-71
2022/04/13 01:24:42;;;;;;;;;;;;;;;;;;5157323;27;19915;-71
2022/04/13 01:27:08;;;;;;;;;;;;;;;;;;5156917;27;20290;-71
2022/04/13 01:29:34;;;;;;;;;;;;;;;;;;5138711;27;19907;-71
2022/04/13 01:32:00;;;;;;;;;;;;;;;;;;5157076;27;20105;-71
2022/04/13 01:34:26;;;;;;;;;;;;;;;;;;5156860;27;19989;-72
2022/04/13 01:36:52;;;;;;;;;;;;;;;;;;5138888;27;19997;-72
2022/04/13 01:39:18;;;;;;;;;;;;;;;;;;5157085;27;20378;-72
2022/04/13 01:41:44;;;;;;;;;;;;;;;;;;5156904;27;19913;-71
2022/04/13 01:44:10;;;;;;;;;;;;;;;;;;5138382;27;20290;-71
2022/04/13 01:46:36;;;;;;;;;;;;;;;;;;5138419;27;20291;-71
2022/04/13 01:49:03;;;;;;;;;;;;;;;;;;5156447;27;19907;-72
2022/04/13 01:51:29;;;;;;;;;;;;;;;;;;5156864;27;19911;-71
2022/04/13 01:53:55;;;;;;;;;;;;;;;;;;5156758;27;19908;-71
2022/04/13 01:56:21;;;;;;;;;;;;;;;;;;5137709;27;19960;-71
2022/04/13 01:58:47;;;;;;;;;;;;;;;;;;5157238;27;19911;-71
2022/04/13 02:01:13;;;;;;;;;;;;;;;;;;5156637;27;20359;-71
2022/04/13 02:03:40;;;;;;;;;;;;;;;;;;5156051;27;19926;-71
2022/04/13 02:06:06;;;;;;;;;;;;;;;;;;5156555;27;19907;-71
2022/04/13 02:08:33;;;;;;;;;;;;;;;;;;5156507;27;19914;-71
2022/04/13 02:10:59;;;;;;;;;;;;;;;;;;5155933;27;19938;-71
2022/04/13 02:13:25;;;;;;;;;;;;;;;;;;5155835;27;19918;-71
2022/04/13 02:15:51;;;;;;;;;;;;;;;;;;5137757;27;20382;-71
2022/04/13 02:18:17;;;;;;;;;;;;;;;;;;5155872;27;19913;-71
2022/04/13 02:20:43;;;;;;;;;;;;;;;;;;5156322;27;19994;-71
2022/04/13 02:23:09;;;;;;;;;;;;;;;;;;5155737;27;19933;-71
2022/04/13 02:25:35;;;;;;;;;;;;;;;;;;5137660;27;19907;-71
2022/04/13 02:28:01;;;;;;;;;;;;;;;;;;5156189;27;20005;-71
2022/04/13 02:30:27;;;;;;;;;;;;;;;;;;5155613;27;20004;-71
2022/04/13 02:32:53;;;;;;;;;;;;;;;;;;5156083;27;20001;-70
2022/04/13 02:35:19;;;;;;;;;;;;;;;;;;5156046;27;19907;-71
2022/04/13 02:37:45;;;;;;;;;;;;;;;;;;5155582;27;19908;-72
2022/04/13 02:40:12;;;;;;;;;;;;;;;;;;5156178;27;19907;-71
2022/04/13 02:42:38;;;;;;;;;;;;;;;;;;5156299;27;19911;-72
2022/04/13 02:45:04;;;;;;;;;;;;;;;;;;5136877;27;19970;-72
2022/04/13 02:47:30;;;;;;;;;;;;;;;;;;5155876;27;20256;-70
2022/04/13 02:49:56;;;;;;;;;;;;;;;;;;5155973;27;19907;-70
2022/04/13 02:52:23;;;;;;;;;;;;;;;;;;5155583;27;20354;-70
2022/04/13 02:54:49;;;;;;;;;;;;;;;;;;5155743;27;20370;-70
2022/04/13 02:57:15;;;;;;;;;;;;;;;;;;5155943;27;19907;-71
2022/04/13 02:59:46;;;;;;;;;;;;;;;;;;5136666;27;19930;-70
2022/04/13 03:02:11;;;;;;;;;;;;;;;;;;5137102;27;19911;-70
2022/04/13 03:04:38;;;;;;;;;;;;;;;;;;5155492;27;19923;-70
2022/04/13 03:07:04;;;;;;;;;;;;;;;;;;5136568;27;19908;-71
2022/04/13 03:09:30;;;;;;;;;;;;;;;;;;5155623;27;19907;-71
2022/04/13 03:11:56;;;;;;;;;;;;;;;;;;5155718;27;19914;-70
2022/04/13 03:14:23;;;;;;;;;;;;;;;;;;5155099;27;19907;-71
2022/04/13 03:16:49;;;;;;;;;;;;;;;;;;5155475;27;19950;-70
2022/04/13 03:19:15;;;;;;;;;;;;;;;;;;5155535;27;19914;-71
2022/04/13 03:21:41;;;;;;;;;;;;;;;;;;5155765;27;19907;-71
2022/04/13 03:24:07;;;;;;;;;;;;;;;;;;5136869;27;20271;-70
2022/04/13 03:26:33;;;;;;;;;;;;;;;;;;5159273;27;19921;-70
2022/04/13 03:28:59;;;;;;;;;;;;;;;;;;5159742;27;20422;-70
2022/04/13 03:31:25;;;;;;;;;;;;;;;;;;5159729;27;19938;-70
2022/04/13 03:33:51;;;;;;;;;;;;;;;;;;5159035;27;19913;-70
2022/04/13 03:36:18;;;;;;;;;;;;;;;;;;5140948;27;19911;-71
2022/04/13 03:38:44;;;;;;;;;;;;;;;;;;5159416;27;20271;-71
2022/04/13 03:41:10;;;;;;;;;;;;;;;;;;5158856;27;19937;-72
2022/04/13 03:43:36;;;;;;;;;;;;;;;;;;5140691;27;19915;-71
2022/04/13 03:46:03;;;;;;;;;;;;;;;;;;5159272;27;20320;-72
2022/04/13 03:48:29;;;;;;;;;;;;;;;;;;5158826;27;19907;-71
2022/04/13 03:50:57;;;;;;;;;;;;;;;;;;5159171;27;20417;-71
2022/04/13 03:53:23;;;;;;;;;;;;;;;;;;5159153;27;19929;-72
2022/04/13 03:55:49;;;;;;;;;;;;;;;;;;5140075;27;19907;-71
2022/04/13 03:58:15;;;;;;;;;;;;;;;;;;5140552;27;20315;-71
2022/04/13 04:00:41;;;;;;;;;;;;;;;;;;5140464;27;19907;-71
2022/04/13 04:03:07;;;;;;;;;;;;;;;;;;5158287;27;20328;-71
2022/04/13 04:05:33;;;;;;;;;;;;;;;;;;5158941;27;19907;-71
2022/04/13 04:07:59;;;;;;;;;;;;;;;;;;5140163;27;19907;-73
2022/04/13 04:10:25;;;;;;;;;;;;;;;;;;5158557;27;19952;-74
2022/04/13 04:12:51;;;;;;;;;;;;;;;;;;5140217;27;19907;-73
2022/04/13 04:15:17;;;;;;;;;;;;;;;;;;5158846;27;19934;-75
2022/04/13 04:17:43;;;;;;;;;;;;;;;;;;5139806;27;19907;-75
2022/04/13 04:20:09;;;;;;;;;;;;;;;;;;5158569;27;19914;-74
2022/04/13 04:22:35;;;;;;;;;;;;;;;;;;5139479;27;20290;-74
2022/04/13 04:25:01;;;;;;;;;;;;;;;;;;5158634;27;19907;-73
2022/04/13 04:27:27;;;;;;;;;;;;;;;;;;5158407;27;19918;-74
2022/04/13 04:29:53;;;;;;;;;;;;;;;;;;5158018;27;19907;-73
2022/04/13 04:32:19;;;;;;;;;;;;;;;;;;5158306;27;20284;-74
2022/04/13 04:34:45;;;;;;;;;;;;;;;;;;5158047;27;19907;-74
2022/04/13 04:37:11;;;;;;;;;;;;;;;;;;5157442;27;20324;-74
2022/04/13 04:39:37;;;;;;;;;;;;;;;;;;5158336;27;19911;-75
2022/04/13 04:42:04;;;;;;;;;;;;;;;;;;5158234;27;19907;-74
2022/04/13 04:44:30;;;;;;;;;;;;;;;;;;5139206;27;19915;-75
2022/04/13 04:46:56;;;;;;;;;;;;;;;;;;5139564;27;19929;-74
2022/04/13 04:49:22;;;;;;;;;;;;;;;;;;5157898;27;20414;-75
2022/04/13 04:51:48;;;;;;;;;;;;;;;;;;5157823;27;19915;-75
2022/04/13 04:54:14;;;;;;;;;;;;;;;;;;5157990;27;20363;-76
2022/04/13 04:56:40;;;;;;;;;;;;;;;;;;5139426;27;19907;-76
2022/04/13 04:59:06;;;;;;;;;;;;;;;;;;5157733;27;20378;-76
2022/04/13 05:01:32;;;;;;;;;;;;;;;;;;5158314;27;19948;-75
2022/04/13 05:03:58;;;;;;;;;;;;;;;;;;5158592;27;19962;-74
2022/04/13 05:06:27;;;;;;;;;;;;;;;;;;5157384;27;19934;-75
2022/04/13 05:08:55;;;;;;;;;;;;;;;;;;5139218;27;20373;-75
2022/04/13 05:11:21;;;;;;;;;;;;;;;;;;5157600;27;19907;-75
2022/04/13 05:13:47;;;;;;;;;;;;;;;;;;5157214;27;20363;-75
2022/04/13 05:16:13;;;;;;;;;;;;;;;;;;5156463;27;19994;-75
2022/04/13 05:18:39;;;;;;;;;;;;;;;;;;5151422;27;20318;-76
2022/04/13 05:21:05;;;;;;;;;;;;;;;;;;5156616;27;20422;-75
2022/04/13 05:23:31;;;;;;;;;;;;;;;;;;5156663;27;19922;-74
2022/04/13 05:25:58;;;;;;;;;;;;;;;;;;5156388;27;19911;-73
2022/04/13 05:28:24;;;;;;;;;;;;;;;;;;5139238;27;19912;-73
2022/04/13 05:30:50;;;;;;;;;;;;;;;;;;5135329;27;19914;-75
2022/04/13 05:33:16;;;;;;;;;;;;;;;;;;5132175;27;20379;-74
2022/04/13 05:35:42;;;;;;;;;;;;;;;;;;5126191;27;20347;-75
2022/04/13 05:38:08;;;;;;;;;;;;;;;;;;5155094;27;19915;-76
2022/04/13 05:40:34;;;;;;;;;;;;;;;;;;5152802;27;19908;-75
2022/04/13 05:43:00;;;;;;;;;;;;;;;;;;5154522;27;20434;-74
2022/04/13 05:45:26;;;;;;;;;;;;;;;;;;5154221;27;19993;-74
2022/04/13 05:47:52;;;;;;;;;;;;;;;;;;5151979;27;19907;-75
2022/04/13 05:50:18;;;;;;;;;;;;;;;;;;5134896;27;20358;-74
2022/04/13 05:52:44;;;;;;;;;;;;;;;;;;5152524;27;19907;-73
2022/04/13 05:55:10;;;;;;;;;;;;;;;;;;5153653;27;19951;-77
2022/04/13 05:57:36;;;;;;;;;;;;;;;;;;5155015;27;19952;-72
2022/04/13 06:00:02;;;;;;;;;;;;;;;;;;5136390;27;20312;-78
2022/04/13 06:02:28;;;;;;;;;;;;;;;;;;5155224;27;19907;-76
2022/04/13 06:04:54;;;;;;;;;;;;;;;;;;5137640;27;19945;-73
2022/04/13 06:07:20;;;;;;;;;;;;;;;;;;5150119;27;19918;-72
2022/04/13 06:09:46;;;;;;;;;;;;;;;;;;5153542;27;19934;-73
2022/04/13 06:12:12;;;;;;;;;;;;;;;;;;5154748;27;19934;-73
2022/04/13 06:14:38;;;;;;;;;;;;;;;;;;5138600;27;19950;-74
2022/04/13 06:17:04;;;;;;;;;;;;;;;;;;5134539;27;19949;-73
2022/04/13 06:19:31;;;;;;;;;;;;;;;;;;5116655;27;20383;-72
2022/04/13 06:21:57;;;;;;;;;;;;;;;;;;5134836;27;20382;-75
2022/04/13 06:24:23;;;;;;;;;;;;;;;;;;5133972;27;19976;-70
2022/04/13 06:26:49;;;;;;;;;;;;;;;;;;5134990;27;19907;-74
2022/04/13 06:29:15;;;;;;;;;;;;;;;;;;5134455;27;20005;-73
2022/04/13 06:31:41;;;;;;;;;;;;;;;;;;5135035;27;19911;-76
2022/04/13 06:34:07;;;;;;;;;;;;;;;;;;5134866;27;19925;-76
2022/04/13 06:36:33;;;;;;;;;;;;;;;;;;5134188;27;19932;-72
2022/04/13 06:38:59;;;;;;;;;;;;;;;;;;5134544;27;20279;-74
2022/04/13 06:41:25;;;;;;;;;;;;;;;;;;5140617;27;19907;-74
2022/04/13 06:43:53;;;;;;;;;;;;;;;;;;5150653;27;19918;-74
2022/04/13 06:46:19;;;;;;;;;;;;;;;;;;5154356;27;19952;-74
2022/04/13 06:48:45;;;;;;;;;;;;;;;;;;5154353;27;19907;-74
2022/04/13 06:51:11;;;;;;;;;;;;;;;;;;5153432;27;19908;-74
2022/04/13 06:53:37;;;;;;;;;;;;;;;;;;5146892;27;19955;-76
2022/04/13 06:56:03;;;;;;;;;;;;;;;;;;5152638;27;19960;-76
2022/04/13 06:58:29;;;;;;;;;;;;;;;;;;5153769;27;20002;-75
2022/04/13 07:00:57;;;;;;;;;;;;;;;;;;5154657;27;20381;-75
2022/04/13 07:03:23;;;;;;;;;;;;;;;;;;5154205;27;19927;-73
2022/04/13 07:05:49;;;;;;;;;;;;;;;;;;5154053;27;20497;-75
2022/04/13 07:08:15;;;;;;;;;;;;;;;;;;5154906;27;19907;-74
2022/04/13 07:10:41;;;;;;;;;;;;;;;;;;5135426;27;19914;-75
2022/04/13 07:13:08;;;;;;;;;;;;;;;;;;5134874;27;20371;-74
2022/04/13 07:15:34;;;;;;;;;;;;;;;;;;5153612;27;19928;-74
2022/04/13 07:18:00;;;;;;;;;;;;;;;;;;5134734;27;19914;-73
2022/04/13 07:20:26;;;;;;;;;;;;;;;;;;5152161;27;19906;-74
2022/04/13 07:22:52;;;;;;;;;;;;;;;;;;5152374;27;20414;-75
2022/04/13 07:25:18;;;;;;;;;;;;;;;;;;5152144;27;20002;-73
2022/04/13 07:27:44;;;;;;;;;;;;;;;;;;5153429;27;20001;-72
2022/04/13 07:30:10;;;;;;;;;;;;;;;;;;5131604;27;19914;-73
2022/04/13 07:32:37;;;;;;;;;;;;;;;;;;5134582;27;19907;-73
2022/04/13 07:35:03;;;;;;;;;;;;;;;;;;5151273;27;20006;-75
2022/04/13 07:37:29;;;;;;;;;;;;;;;;;;5152656;27;19918;-74
2022/04/13 07:39:55;;;;;;;;;;;;;;;;;;5154096;27;19907;-74
2022/04/13 07:42:22;;;;;;;;;;;;;;;;;;5153959;27;19951;-73
2022/04/13 07:44:53;;;;;;;;;;;;;;;;;;5154021;27;19919;-74
2022/04/13 07:47:22;;;;;;;;;;;;;;;;;;5152488;27;20040;-72
2022/04/13 07:49:48;;;;;;;;;;;;;;;;;;5151130;27;19954;-73
2022/04/13 07:52:15;;;;;;;;;;;;;;;;;;5131504;27;19961;-73
2022/04/13 07:54:41;;;;;;;;;;;;;;;;;;5131871;27;19994;-73
2022/04/13 07:57:07;;;;;;;;;;;;;;;;;;5132494;27;19911;-72
2022/04/13 07:59:33;;;;;;;;;;;;;;;;;;5130424;28;19908;-73
2022/04/13 08:02:01;;;;;;;;;;;;;;;;;;5145797;27;20401;-73
2022/04/13 08:05:46;;;;;;;;;;;;;;;;;;5172835;27;20009;-74
2022/04/13 08:08:12;;;;;;;;;;;;;;;;;;5158447;27;20390;-72
2022/04/13 08:10:38;;;;;;;;;;;;;;;;;;5172187;27;20353;-71
2022/04/13 08:13:04;;;;;;;;;;;;;;;;;;5154039;27;19914;-71
2022/04/13 08:16:12;;;;;;;;;;;;;;;;;;5165836;27;19917;-73
2022/04/13 08:18:38;;;;;;;;;;;;;;;;;;5171667;27;19911;-74
2022/04/13 08:23:24;;;;;;;;;;;;;;;;;;5109212;27;19912;-73
2022/04/13 08:28:09;;;;;;;;;;;;;;;;;;5109016;27;19918;-77
2022/04/13 08:30:36;;;;;;;;;;;;;;;;;;5110123;28;19995;-79
2022/04/13 08:35:50;;;;;;;;;;;;;;;;;;5092108;27;19916;-75
2022/04/13 08:38:16;;;;;;;;;;;;;;;;;;5089198;28;20387;-78
2022/04/13 08:46:45;;;;;;;;;;;;;;;;;;5129377;27;19920;-70
2022/04/13 08:49:11;;;;;;;;;;;;;;;;;;5130172;28;19912;-74
2022/04/13 08:51:37;;;;;;;;;;;;;;;;;;5131206;28;20054;-74
2022/04/13 08:54:03;;;;;;;;;;;;;;;;;;5130596;28;19912;-76
2022/04/13 08:58:02;;;;;;;;;;;;;;;;;;5086021;27;19921;-76
2022/04/13 09:01:30;;;;;;;;;;;;;;;;;;5109826;27;19912;-76
2022/04/13 09:03:56;;;;;;;;;;;;;;;;;;5106677;28;20465;-75
2022/04/13 09:06:41;;;;;;;;;;;;;;;;;;5109350;27;19918;-76
2022/04/13 09:09:07;;;;;;;;;;;;;;;;;;5109697;28;20256;-77
2022/04/13 09:12:25;;;;;;;;;;;;;;;;;;5069559;28;20308;-77
2022/04/13 09:16:28;;;;;;;;;;;;;;;;;;5105618;27;19916;-76
2022/04/13 09:22:11;;;;;;;;;;;;;;;;;;5171337;27;20263;-74
2022/04/13 09:26:20;;;;;;;;;;;;;;;;;;5109657;27;19916;-72
2022/04/13 09:28:46;;;;;;;;;;;;;;;;;;5110425;28;19951;-74
2022/04/13 09:32:25;;;;;;;;;;;;;;;;;;5089160;27;20303;-74
2022/04/13 09:34:51;;;;;;;;;;;;;;;;;;5079959;28;20016;-75
2022/04/13 09:37:17;;;;;;;;;;;;;;;;;;5082711;28;19994;-76
2022/04/13 09:41:45;;;;;;;;;;;;;;;;;;5171582;27;20313;-77
2022/04/13 09:44:11;;;;;;;;;;;;;;;;;;5166388;27;19946;-72
2022/04/13 09:46:37;;;;;;;;;;;;;;;;;;5125647;27;19928;-69
2022/04/13 09:49:04;;;;;;;;;;;;;;;;;;5089285;28;19961;-69
2022/04/13 09:51:30;;;;;;;;;;;;;;;;;;5089646;28;19991;-72
2022/04/13 09:53:56;;;;;;;;;;;;;;;;;;5107512;28;20031;-71
2022/04/13 09:58:26;;;;;;;;;;;;;;;;;;5087094;28;19920;-68
2022/04/13 10:00:52;;;;;;;;;;;;;;;;;;5088107;28;20007;-70
2022/04/13 10:05:07;;;;;;;;;;;;;;;;;;5148677;27;19912;-69
2022/04/13 10:07:46;;;;;;;;;;;;;;;;;;5108643;27;19912;-69
2022/04/13 10:10:12;;;;;;;;;;;;;;;;;;5110022;28;20369;-69
2022/04/13 10:12:38;;;;;;;;;;;;;;;;;;5119178;28;19908;-71
2022/04/13 10:15:04;;;;;;;;;;;;;;;;;;5108265;28;19920;-71
2022/04/13 10:17:30;;;;;;;;;;;;;;;;;;5110158;28;19940;-70
2022/04/13 10:19:57;;;;;;;;;;;;;;;;;;5109101;28;19914;-70
2022/04/13 10:22:23;;;;;;;;;;;;;;;;;;5107521;28;19969;-72
2022/04/13 10:24:49;;;;;;;;;;;;;;;;;;5109876;28;19912;-70
2022/04/13 10:27:19;;;;;;;;;;;;;;;;;;5109622;28;19916;-71
2022/04/13 10:29:45;;;;;;;;;;;;;;;;;;5108390;28;19930;-70
2022/04/13 10:32:11;;;;;;;;;;;;;;;;;;5110560;28;19912;-70
2022/04/13 10:34:37;;;;;;;;;;;;;;;;;;5109098;28;19908;-71
2022/04/13 10:37:03;;;;;;;;;;;;;;;;;;5096388;28;20013;-69
2022/04/13 10:40:28;;;;;;;;;;;;;;;;;;5104605;27;19919;-69
2022/04/13 10:42:54;;;;;;;;;;;;;;;;;;5110041;28;19955;-67
2022/04/13 10:45:20;;;;;;;;;;;;;;;;;;5110731;28;19908;-69
2022/04/13 10:50:17;;;;;;;;;;;;;;;;;;5140164;27;20354;-70
2022/04/13 10:52:43;;;;;;;;;;;;;;;;;;5130450;28;19912;-72
2022/04/13 10:55:09;;;;;;;;;;;;;;;;;;5131287;28;19908;-70
2022/04/13 10:58:49;;;;;;;;;;;;;;;;;;5090786;28;19912;-69
2022/04/13 11:01:15;;;;;;;;;;;;;;;;;;5090409;28;19913;-68
2022/04/13 11:03:41;;;;;;;;;;;;;;;;;;5089523;28;19909;-70
2022/04/13 11:06:07;;;;;;;;;;;;;;;;;;5088518;28;20011;-69
2022/04/13 11:11:31;;;;;;;;;;;;;;;;;;5069601;28;19913;-69
2022/04/13 11:13:57;;;;;;;;;;;;;;;;;;5068690;28;19955;-69
2022/04/13 11:16:23;;;;;;;;;;;;;;;;;;5079058;28;19965;-70
2022/04/13 11:18:49;;;;;;;;;;;;;;;;;;5084449;28;19917;-70
2022/04/13 11:21:15;;;;;;;;;;;;;;;;;;5067334;28;19909;-70
2022/04/13 11:23:41;;;;;;;;;;;;;;;;;;5100502;28;19909;-69
2022/04/13 11:26:07;;;;;;;;;;;;;;;;;;5102133;28;19908;-70
2022/04/13 11:28:34;;;;;;;;;;;;;;;;;;5102487;28;20351;-69
2022/04/13 11:31:01;;;;;;;;;;;;;;;;;;5070455;28;20019;-71
2022/04/13 11:33:27;;;;;;;;;;;;;;;;;;5102006;28;20369;-69
2022/04/13 11:35:52;;;;;;;;;;;;;;;;;;5070150;28;19995;-71
2022/04/13 11:38:18;;;;;;;;;;;;;;;;;;5069968;28;19909;-71
2022/04/13 11:40:44;;;;;;;;;;;;;;;;;;5069907;28;19916;-70
2022/04/13 11:43:10;;;;;;;;;;;;;;;;;;5102666;28;19924;-72
2022/04/13 11:45:37;;;;;;;;;;;;;;;;;;5102440;28;20373;-70
2022/04/13 11:48:03;;;;;;;;;;;;;;;;;;5070287;28;19913;-71
2022/04/13 11:50:32;;;;;;;;;;;;;;;;;;5069874;28;19999;-71
2022/04/13 11:52:58;;;;;;;;;;;;;;;;;;5069770;28;20475;-71
2022/04/13 11:55:24;;;;;;;;;;;;;;;;;;5099252;28;19980;-71
2022/04/13 11:57:50;;;;;;;;;;;;;;;;;;5069914;28;19962;-70
2022/04/13 12:00:16;;;;;;;;;;;;;;;;;;5069427;28;19994;-70
2022/04/13 12:02:42;;;;;;;;;;;;;;;;;;5069675;28;19938;-68
2022/04/13 12:05:08;;;;;;;;;;;;;;;;;;5070250;28;19988;-74
2022/04/13 12:07:34;;;;;;;;;;;;;;;;;;5070111;28;19909;-74
2022/04/13 12:10:00;;;;;;;;;;;;;;;;;;5077896;28;20408;-72
2022/04/13 12:12:25;;;;;;;;;;;;;;;;;;5071476;28;19908;-72
2022/04/13 12:14:51;;;;;;;;;;;;;;;;;;5089485;28;19931;-72
2022/04/13 12:17:17;;;;;;;;;;;;;;;;;;5089266;28;19912;-72
2022/04/13 12:19:44;;;;;;;;;;;;;;;;;;5090303;28;19915;-72
2022/04/13 12:22:10;;;;;;;;;;;;;;;;;;5061811;28;19912;-72
2022/04/13 12:24:36;;;;;;;;;;;;;;;;;;5076550;28;19908;-72
2022/04/13 12:27:02;;;;;;;;;;;;;;;;;;5076439;28;20296;-72
2022/04/13 12:29:28;;;;;;;;;;;;;;;;;;5076229;28;19920;-72
2022/04/13 12:31:54;;;;;;;;;;;;;;;;;;5077003;28;19912;-72
2022/04/13 12:34:20;;;;;;;;;;;;;;;;;;5076406;28;20007;-72
2022/04/13 12:36:46;;;;;;;;;;;;;;;;;;5057886;28;19997;-73
2022/04/13 12:39:12;;;;;;;;;;;;;;;;;;5076294;28;19909;-73
2022/04/13 12:41:39;;;;;;;4.35;1.85;;;;;;;;;;5074957;28;20396;-72
2022/04/13 12:44:05;;;;;;;4.85;1.70;;;;;;;;;;5075347;28;20107;-72
2022/04/13 12:46:32;;;;;;;3.05;1.63;;;;;;;;;;5075788;28;20020;-73
2022/04/13 12:49:03;;;;;;;3.67;1.50;;;;;;;;;;5075075;28;20020;-73
2022/04/13 12:51:31;;;;;;;5.90;1.95;;;;;;;;;;5075588;28;20036;-74
2022/04/13 12:53:58;;;;;;;4.90;2.08;;;;;;;;;;5075703;28;20028;-73
2022/04/13 12:56:25;;;;;;;4.10;1.70;;;;;;;;;;5075172;28;20032;-72
2022/04/13 12:58:52;;;;;;;8.85;1.80;;;;;;;;;;5075535;28;20020;-72
2022/04/13 13:01:25;;;;;;;2.60;1.52;;;;;;;;;;5075462;28;20020;-72
2022/04/13 13:03:51;;;;;;;3.22;1.67;;;;;;;;;;5075038;28;20376;-73
2022/04/13 13:06:17;;;;;;;5.72;2.38;;;;;;;;;;5075416;28;20029;-74
2022/04/13 13:08:51;;;;;;;4.97;2.38;;;;;;;;;;5075223;28;20050;-74
2022/04/13 13:11:18;;;;;;;3.92;1.85;;;;;;;;;;5056700;28;20056;-72
2022/04/13 13:13:44;;;;;;;3.80;1.85;;;;;;;;;;5075473;28;20023;-72
2022/04/13 13:16:29;;;;;;;7.43;2.08;;;;;;;;;;5075151;28;20052;-73
2022/04/13 13:19:11;;;;;;;4.18;2.40;;;;;;;;;;5074853;28;20100;-73
2022/04/13 13:21:37;;;;;;;5.13;2.35;;;;;;;;;;5057187;28;20059;-72
2022/04/13 13:24:04;;;;;;;4.72;2.20;;;;;;;;;;5056748;28;20032;-72
2022/04/13 13:26:30;;;;;;;6.00;2.03;;;;;;;;;;5075012;28;20035;-72
2022/04/13 13:28:59;;;;;;;4.28;1.95;;;;;;;;;;5075207;28;20496;-72
2022/04/13 13:31:26;;;;;;;4.72;2.00;;;;;;;;;;5074372;28;20791;-72
2022/04/13 13:33:55;;;;;;;4.50;1.67;;;;;;;;;;5073943;28;20020;-72
2022/04/13 13:36:21;;;;;;;2.55;1.50;;;;;;;;;;5074807;28;20021;-73
2022/04/13 13:38:48;;;;;;;5.55;1.70;;;;;;;;;;5074373;28;20431;-73
2022/04/13 13:41:14;;;;;;;2.22;1.15;;;;;;;;;;5074808;28;20099;-73
2022/04/13 13:43:41;;;;;;;5.15;1.92;;;;;;;;;;5074661;28;20104;-73
2022/04/13 13:46:21;;;;;;;3.80;1.77;;;;;;;;;;5074117;28;20380;-73
2022/04/13 13:48:49;;;;;;;2.42;1.55;;;;;;;;;;5074727;28;20073;-73
2022/04/13 13:51:16;;;;;;;4.25;1.70;;;;;;;;;;5074486;28;20028;-74
2022/04/13 13:53:44;;;;;;;3.70;1.60;;;;;;;;;;5070278;28;20025;-73
2022/04/13 13:56:11;;;;;;;3.90;1.65;;;;;;;;;;5074302;28;20035;-73
2022/04/13 13:58:37;;;;;;;4.28;1.48;;;;;;;;;;5074176;28;20036;-73
2022/04/13 14:01:03;;;;;;;4.15;1.50;;;;;;;;;;5073951;28;20444;-73
2022/04/13 14:03:29;;;;;;;2.97;1.20;;;;;;;;;;5074249;28;20388;-73
2022/04/13 14:05:57;;;;;;;3.60;1.67;;;;;;;;;;5074047;28;20117;-72
2022/04/13 14:08:23;;;;;;;3.25;1.40;;;;;;;;;;5055744;28;20029;-73
2022/04/13 14:10:49;;;;;;;3.63;1.95;;;;;;;;;;5073759;28;20040;-72
2022/04/13 14:13:16;;;;;;;3.20;1.67;;;;;;;;;;5073912;28;20031;-73
2022/04/13 14:15:43;;;;;;;4.35;1.50;;;;;;;;;;5074189;28;20100;-71
2022/04/13 14:18:09;;;;;;;3.22;1.50;;;;;;;;;;5074085;28;20029;-72
2022/04/13 14:20:36;;;;;;;4.45;1.95;;;;;;;;;;5073189;28;20106;-72
2022/04/13 14:23:02;;;;;;;5.50;1.70;;;;;;;;;;5073764;28;20091;-71
2022/04/13 14:25:28;;;;;;;3.38;1.58;;;;;;;;;;5073627;28;20023;-71
2022/04/13 14:27:56;;;;;;;4.47;1.90;;;;;;;;;;5073225;28;20056;-71
2022/04/13 14:30:24;;;;;;;4.32;2.20;;;;;;;;;;5055644;28;20040;-72
2022/04/13 14:32:51;;;;;;;4.05;1.88;;;;;;;;;;5073939;28;20024;-72
2022/04/13 14:35:17;;;;;;;3.92;1.85;;;;;;;;;;5073320;28;20485;-72
2022/04/13 14:37:45;;;;;;;3.58;2.08;;;;;;;;;;5073771;28;20128;-72
2022/04/13 14:40:12;;;;;;;4.35;2.00;;;;;;;;;;5072816;28;20048;-72
2022/04/13 14:42:39;;;;;;;4.13;1.92;;;;;;;;;;5073270;28;20021;-72
2022/04/13 14:45:06;;;;;;;4.07;1.70;;;;;;;;;;5073368;28;20099;-72
2022/04/13 14:47:32;;;;;;;2.85;1.40;;;;;;;;;;5073743;28;20516;-73
2022/04/13 14:49:58;;;;;;;3.97;1.52;;;;;;;;;;5073082;28;20113;-72
2022/04/13 14:52:24;;;;;;;7.95;1.40;;;;;;;;;;5073468;28;20032;-73
2022/04/13 14:54:51;;;;;;;4.85;2.13;;;;;;;;;;5073469;28;20028;-72
2022/04/13 14:57:19;;;;;;;5.30;2.28;;;;;;;;;;5073183;28;20130;-73
2022/04/13 14:59:48;;;;;;;2.72;1.58;;;;;;;;;;5073302;28;20100;-72
2022/04/13 15:02:15;;;;;;;5.55;1.52;;;;;;;;;;5073422;28;20400;-72
2022/04/13 15:04:41;;;;;;;4.15;1.65;;;;;;;;;;5072801;28;20016;-72
2022/04/13 15:07:07;;;;;;;6.43;2.22;;;;;;;;;;5073297;28;20025;-72
2022/04/13 15:09:34;;;;;;;4.82;2.50;;;;;;;;;;5072615;28;20404;-72
2022/04/13 15:12:04;;;;;;;4.32;2.00;;;;;;;;;;5073661;28;20386;-72
2022/04/13 15:14:30;;;;;;;3.35;1.90;;;;;;;;;;5073276;28;20031;-72
2022/04/13 15:16:56;;;;;;;6.05;1.73;;;;;;;;;;5073189;28;20035;-72
2022/04/13 15:19:23;;;;;;;3.33;1.30;;;;;;;;;;5073160;28;20027;-72
2022/04/13 15:21:49;;;;;;;4.93;1.83;;;;;;;;;;5073391;28;20049;-73
2022/04/13 15:24:16;;;;;;;2.90;1.60;;;;;;;;;;5072681;28;20025;-71
2022/04/13 15:26:42;;;;;;;3.85;1.88;;;;;;;;;;5073139;28;20028;-73
2022/04/13 15:29:09;;;;;;;5.38;1.90;;;;;;;;;;5073103;28;20423;-73
2022/04/13 15:31:36;;;;;;;11.93;3.00;;;;;;;;;;5072739;28;20021;-72
2022/04/13 15:34:03;;;;;;;4.90;2.17;;;;;;;;;;5073142;28;20465;-72
2022/04/13 15:36:29;;;;;;;4.85;2.10;;;;;;;;;;5073125;28;20522;-71
2022/04/13 15:38:55;;;;;;;4.90;2.28;;;;;;;;;;5072727;28;20020;-72
2022/04/13 15:41:22;;;;;;;3.65;1.83;;;;;;;;;;5073176;28;20017;-74
2022/04/13 15:43:49;;;;;;;6.43;2.47;;;;;;;;;;5073105;28;20025;-73
2022/04/13 15:46:16;;;;;;;7.50;3.53;;;;;;;;;;5072587;28;20492;-72
2022/04/13 15:48:42;;;;;;;6.55;2.85;;;;;;;;;;5055082;28;20029;-73
2022/04/13 15:51:08;;;;;;;5.22;1.88;;;;;;;;;;5072827;28;20492;-72
2022/04/13 15:53:38;;;;;;;4.45;2.33;;;;;;;;;;5072463;28;20366;-73
2022/04/13 15:56:05;;;;;;;6.93;3.65;;;;;;;;;;5073050;28;20020;-73
2022/04/13 15:58:32;;;;;;;9.27;5.47;;;;;;;;;;5076703;28;20048;-72
2022/04/13 16:00:59;;;;;;;17.88;13.80;;;;;;;;;;5076296;28;20025;-73
2022/04/13 16:03:25;;;;;;;14.60;10.57;;;;;;;;;;5058656;28;20473;-72
2022/04/13 16:05:51;;;;;;;9.80;6.05;;;;;;;;;;5076579;28;20043;-72
2022/04/13 16:08:19;;;;;;;18.95;14.38;;;;;;;;;;5076133;28;20071;-72
2022/04/13 16:10:45;;;;;;;19.55;14.45;;;;;;;;;;5076117;28;20040;-75
2022/04/13 16:13:12;;;;;;;30.38;21.50;;;;;;;;;;5075982;28;20507;-75
2022/04/13 16:15:40;;;;;;;19.13;12.77;;;;;;;;;;5058354;28;20489;-74
2022/04/13 16:18:07;;;;;;;17.65;12.30;;;;;;;;;;5076580;28;20480;-75
2022/04/13 16:20:34;;;;;;;12.70;9.60;;;;;;;;;;5075951;28;20029;-72
2022/04/13 16:23:00;;;;;;;13.43;8.68;;;;;;;;;;5076226;28;20058;-72
2022/04/13 16:25:26;;;;;;;8.80;6.45;;;;;;;;;;5058241;28;20024;-72
2022/04/13 16:27:53;;;;;;;7.93;5.45;;;;;;;;;;5057710;28;20027;-73
2022/04/13 16:30:20;;;;;;;5.57;3.38;;;;;;;;;;5076256;28;20079;-73
2022/04/13 16:32:46;;;;;;;6.20;3.20;;;;;;;;;;5075961;28;20067;-73
2022/04/13 16:35:12;;;;;;;12.48;5.50;;;;;;;;;;5075759;28;20074;-72
2022/04/13 16:37:39;;;;;;;9.15;4.18;;;;;;;;;;5075930;28;20074;-74
2022/04/13 16:40:05;;;;;;;12.48;6.20;;;;;;;;;;5075907;28;20017;-72
2022/04/13 16:42:32;;;;;;;17.52;10.18;;;;;;;;;;5075591;28;20024;-72
2022/04/13 16:45:31;;;;;;;15.20;8.40;;;;;;;;;;5111802;27;20388;-72